Time;durP1;ratioP1;P1;durP2;ratioP2;P2;SDS_P1;SDS_P2;PMS_P1;PMS_P2;Temp;Humidity;BMP_temperature;BMP_pressure;BME280_temperature;BME280_humidity;BME280_pressure;Samples;Min_cycle;Max_cycle;Signal;HPM_P1;HPM_P2
2023/05/17 00:01:41;;;;;;;5.43;3.27;;;;;;;7.25;96.43;100774.75;4977739;28;20208;-78
2023/05/17 00:04:09;;;;;;;6.97;2.97;;;;;;;7.35;96.47;100775.63;4977469;28;20261;-78
2023/05/17 00:06:35;;;;;;;5.03;3.40;;;;;;;7.43;95.19;100788.59;4977829;28;20805;-78
2023/05/17 00:09:02;;;;;;;4.37;2.60;;;;;;;7.21;96.29;100788.59;4976806;28;20229;-77
2023/05/17 00:11:29;;;;;;;5.57;2.60;;;;;;;7.21;96.55;100783.41;4976565;28;20219;-78
2023/05/17 00:13:55;;;;;;;8.27;3.53;;;;;;;7.16;97.34;100774.78;4977596;28;20266;-78
2023/05/17 00:16:21;;;;;;;5.90;2.80;;;;;;;7.23;97.14;100776.47;4977416;28;20234;-78
2023/05/17 00:18:48;;;;;;;5.80;3.10;;;;;;;7.23;97.20;100783.41;4976958;28;20574;-78
2023/05/17 00:21:16;;;;;;;6.17;2.60;;;;;;;7.12;97.39;100778.22;4976652;28;20211;-78
2023/05/17 00:23:42;;;;;;;4.93;2.93;;;;;;;7.06;97.11;100771.31;4976606;28;20265;-77
2023/05/17 00:26:08;;;;;;;5.63;3.10;;;;;;;7.14;98.15;100769.56;4976557;28;20225;-78
2023/05/17 00:28:35;;;;;;;5.30;3.03;;;;;;;7.12;97.95;100760.91;4977102;28;20233;-78
2023/05/17 00:31:01;;;;;;;5.50;2.73;;;;;;;7.13;97.90;100765.22;4977261;28;20748;-78
2023/05/17 00:33:28;;;;;;;3.67;2.70;;;;;;;7.16;97.53;100762.66;4977558;28;20261;-78
2023/05/17 00:35:54;;;;;;;4.10;3.00;;;;;;;7.21;97.95;100761.78;4976882;28;20638;-77
2023/05/17 00:38:22;;;;;;;3.47;2.47;;;;;;;7.25;97.92;100760.91;4977226;28;20231;-78
2023/05/17 00:40:49;;;;;;;3.70;2.40;;;;;;;7.25;98.69;100755.72;4977407;28;20586;-78
2023/05/17 00:43:15;;;;;;;4.17;2.93;;;;;;;7.30;97.98;100767.84;4976882;28;20209;-77
2023/05/17 00:45:42;;;;;;;4.07;2.70;;;;;;;7.34;97.55;100779.09;4977202;28;20228;-78
2023/05/17 00:48:08;;;;;;;5.23;2.47;;;;;;;7.41;97.03;100777.34;4976690;28;20229;-78
2023/05/17 00:50:35;;;;;;;4.63;3.10;;;;;;;7.41;97.61;100788.59;4976004;28;20239;-78
2023/05/17 00:53:01;;;;;;;5.00;3.00;;;;;;;7.31;97.83;100787.75;4975906;28;20213;-77
2023/05/17 00:55:30;;;;;;;5.30;2.60;;;;;;;7.26;98.67;100775.66;4976334;28;20241;-78
2023/05/17 00:57:56;;;;;;;4.33;3.40;;;;;;;7.25;98.64;100781.69;4976292;28;20230;-78
2023/05/17 01:00:23;;;;;;;5.50;2.90;;;;;;;7.35;98.66;100780.81;4976378;28;20561;-78
2023/05/17 01:02:50;;;;;;;7.93;3.27;;;;;;;7.27;99.14;100779.94;4976246;28;20261;-77
2023/05/17 01:05:17;;;;;;;6.87;3.50;;;;;;;7.28;99.40;100777.38;4976397;28;20244;-78
2023/05/17 01:07:43;;;;;;;7.97;2.83;;;;;;;7.30;99.85;100774.78;4976357;28;20301;-78
2023/05/17 01:10:10;;;;;;;5.83;2.87;;;;;;;7.26;99.58;100770.44;4975749;28;20211;-77
2023/05/17 01:12:49;;;;;;;5.17;3.50;;;;;;;7.18;100.00;100777.38;4976040;28;20214;-77
2023/05/17 01:15:21;;;;;;;6.63;3.00;;;;;;;7.24;99.63;100772.19;4976535;28;20241;-77
2023/05/17 01:17:54;;;;;;;4.13;2.80;;;;;;;7.16;100.00;100773.03;4976125;28;20249;-78
2023/05/17 01:20:26;;;;;;;8.10;3.13;;;;;;;7.25;100.00;100758.31;4976046;28;20333;-78
2023/05/17 01:23:09;;;;;;;6.23;2.90;;;;;;;7.12;100.00;100762.66;4975659;28;20286;-78
2023/05/17 01:25:49;;;;;;;6.37;2.80;;;;;;;7.14;100.00;100753.13;4975589;28;20210;-78
2023/05/17 01:28:20;;;;;;;7.80;3.17;;;;;;;7.24;100.00;100759.19;4976351;28;20233;-78
2023/05/17 01:30:48;;;;;;;5.83;3.53;;;;;;;7.05;100.00;100771.28;4975802;28;20232;-78
2023/05/17 01:33:16;;;;;;;6.50;3.70;;;;;;;6.87;100.00;100759.16;4975791;28;20209;-78
2023/05/17 01:35:42;;;;;;;4.93;3.73;;;;;;;6.92;100.00;100744.47;4976402;28;20209;-78
2023/05/17 01:38:09;;;;;;;8.70;3.30;;;;;;;6.88;100.00;100742.75;4975408;28;20225;-77
2023/05/17 01:40:39;;;;;;;5.77;3.30;;;;;;;6.87;100.00;100744.47;4976091;28;20239;-78
2023/05/17 01:43:22;;;;;;;7.13;3.67;;;;;;;6.90;100.00;100741.88;4975990;28;20217;-78
2023/05/17 01:45:56;;;;;;;7.83;4.13;;;;;;;6.89;100.00;100747.91;4976319;28;20262;-78
2023/05/17 01:48:28;;;;;;;11.17;4.17;;;;;;;6.95;100.00;100740.13;4976304;28;20224;-78
2023/05/17 01:50:58;;;;;;;9.37;4.70;;;;;;;7.01;100.00;100741.88;4976026;28;20211;-78
2023/05/17 01:53:30;;;;;;;7.17;3.57;;;;;;;6.96;100.00;100744.47;4975638;28;20273;-78
2023/05/17 01:56:01;;;;;;;7.27;3.67;;;;;;;7.05;100.00;100751.38;4976050;28;20210;-78
2023/05/17 01:58:30;;;;;;;9.53;4.00;;;;;;;6.93;100.00;100754.84;4975735;28;20233;-78
2023/05/17 02:01:00;;;;;;;6.13;3.90;;;;;;;6.90;100.00;100748.81;4975372;28;20617;-77
2023/05/17 02:03:27;;;;;;;7.57;4.27;;;;;;;6.89;100.00;100750.50;4975549;28;20201;-78
2023/05/17 02:05:54;;;;;;;7.50;3.97;;;;;;;6.89;100.00;100754.84;4975111;28;20291;-77
2023/05/17 02:08:20;;;;;;;10.17;4.03;;;;;;;6.83;100.00;100753.09;4975344;28;20245;-78
2023/05/17 02:10:47;;;;;;;8.63;4.10;;;;;;;6.82;100.00;100758.28;4975239;28;20589;-79
2023/05/17 02:13:13;;;;;;;7.70;3.83;;;;;;;6.86;100.00;100750.53;4975445;28;20672;-77
2023/05/17 02:15:41;;;;;;;13.57;5.23;;;;;;;6.90;100.00;100747.06;4975405;28;20210;-77
2023/05/17 02:18:07;;;;;;;6.80;5.10;;;;;;;6.93;100.00;100747.06;4974758;28;20317;-78
2023/05/17 02:20:34;;;;;;;11.23;4.73;;;;;;;6.95;100.00;100760.88;4974709;28;20214;-78
2023/05/17 02:23:00;;;;;;;9.43;4.20;;;;;;;7.02;100.00;100756.59;4974416;28;20693;-77
2023/05/17 02:25:27;;;;;;;11.50;4.20;;;;;;;7.09;100.00;100758.31;4975189;28;20384;-78
2023/05/17 02:27:53;;;;;;;10.17;4.97;;;;;;;7.15;100.00;100768.72;4975093;28;20603;-77
2023/05/17 02:30:21;;;;;;;8.83;4.10;;;;;;;7.21;100.00;100774.75;4975277;28;20244;-77
2023/05/17 02:32:48;;;;;;;8.93;3.80;;;;;;;7.16;100.00;100773.03;4974309;28;20212;-77
2023/05/17 02:35:15;;;;;;;6.87;3.77;;;;;;;7.17;100.00;100773.88;4975023;28;20285;-78
2023/05/17 02:37:41;;;;;;;10.23;4.53;;;;;;;7.20;100.00;100770.47;4975243;28;20228;-78
2023/05/17 02:40:09;;;;;;;14.87;4.37;;;;;;;7.26;100.00;100780.84;4975102;28;20213;-78
2023/05/17 02:42:35;;;;;;;10.33;4.93;;;;;;;7.30;100.00;100786.03;4975409;28;20213;-78
2023/05/17 02:45:02;;;;;;;7.37;4.20;;;;;;;7.31;100.00;100779.97;4974988;28;20271;-78
2023/05/17 02:47:29;;;;;;;8.53;4.20;;;;;;;7.40;100.00;100788.63;4975227;28;20245;-77
2023/05/17 02:49:56;;;;;;;6.83;4.83;;;;;;;7.45;100.00;100787.75;4975095;28;20620;-78
2023/05/17 02:52:23;;;;;;;10.10;4.80;;;;;;;7.58;100.00;100788.59;4974856;28;20212;-79
2023/05/17 02:54:50;;;;;;;5.80;4.03;;;;;;;7.60;100.00;100799.00;4975305;28;20274;-78
2023/05/17 02:57:16;;;;;;;15.53;4.80;;;;;;;7.62;100.00;100798.13;4975043;28;20299;-79
2023/05/17 02:59:43;;;;;;;8.33;4.87;;;;;;;7.66;100.00;100801.59;4975301;28;20223;-78
2023/05/17 03:02:09;;;;;;;10.53;4.67;;;;;;;7.75;100.00;100804.19;4975227;28;20261;-78
2023/05/17 03:04:35;;;;;;;9.40;4.63;;;;;;;7.77;100.00;100799.84;4976076;28;20230;-77
2023/05/17 03:07:03;;;;;;;6.87;4.80;;;;;;;7.92;100.00;100809.34;4976069;28;20236;-78
2023/05/17 03:09:30;;;;;;;7.50;4.80;;;;;;;7.96;100.00;100814.50;4975411;28;20231;-79
2023/05/17 03:11:56;;;;;;;6.87;5.07;;;;;;;8.02;100.00;100820.59;4975144;28;20208;-77
2023/05/17 03:14:23;;;;;;;8.93;4.97;;;;;;;8.02;100.00;100836.19;4975110;28;20206;-78
2023/05/17 03:16:49;;;;;;;13.17;5.40;;;;;;;8.02;100.00;100838.78;4974797;28;20669;-79
2023/05/17 03:19:16;;;;;;;11.83;5.10;;;;;;;8.07;100.00;100832.72;4975014;28;20224;-78
2023/05/17 03:21:42;;;;;;;10.33;6.33;;;;;;;8.13;100.00;100856.09;4975141;28;20202;-78
2023/05/17 03:24:10;;;;;;;11.43;5.60;;;;;;;8.10;100.00;100861.28;4975670;28;20211;-78
2023/05/17 03:26:36;;;;;;;11.70;5.10;;;;;;;8.16;100.00;100876.00;4974984;28;20263;-78
2023/05/17 03:29:03;;;;;;;9.77;5.57;;;;;;;8.04;100.00;100894.25;4975422;28;20235;-78
2023/05/17 03:31:30;;;;;;;7.90;4.10;;;;;;;7.96;100.00;100895.09;4975410;28;20257;-78
2023/05/17 03:33:56;;;;;;;10.97;4.67;;;;;;;8.05;100.00;100903.78;4978482;28;20559;-78
2023/05/17 03:36:23;;;;;;;9.40;4.63;;;;;;;7.89;100.00;100901.19;4978700;28;20208;-78
2023/05/17 03:38:49;;;;;;;12.77;5.03;;;;;;;7.82;100.00;100903.78;4979386;28;20269;-79
2023/05/17 03:41:17;;;;;;;9.33;4.87;;;;;;;7.89;100.00;100903.78;4978856;28;20207;-79
2023/05/17 03:43:43;;;;;;;9.53;5.00;;;;;;;7.79;100.00;100911.56;4978967;28;20216;-78
2023/05/17 03:46:10;;;;;;;12.20;5.30;;;;;;;7.71;100.00;100895.97;4979254;28;20265;-79
2023/05/17 03:48:36;;;;;;;12.97;5.97;;;;;;;7.78;100.00;100907.25;4979313;28;20240;-79
2023/05/17 03:51:03;;;;;;;6.37;4.30;;;;;;;7.72;100.00;100906.38;4978824;28;20210;-79
2023/05/17 03:53:29;;;;;;;20.17;6.17;;;;;;;7.61;100.00;100907.22;4978619;28;20267;-78
2023/05/17 03:55:56;;;;;;;10.90;5.17;;;;;;;7.66;100.00;100902.91;4978623;28;20585;-78
2023/05/17 03:58:23;;;;;;;9.33;4.37;;;;;;;7.48;100.00;100896.84;4978543;28;20238;-78
2023/05/17 04:00:51;;;;;;;7.90;4.93;;;;;;;7.60;100.00;100895.97;4979647;28;20246;-78
2023/05/17 04:03:17;;;;;;;15.23;7.00;;;;;;;7.61;100.00;100902.03;4978561;28;20234;-78
2023/05/17 04:05:45;;;;;;;8.70;4.57;;;;;;;7.53;100.00;100912.41;4978597;28;20223;-78
2023/05/17 04:08:11;;;;;;;8.97;5.13;;;;;;;7.38;100.00;100905.50;4977682;28;20240;-78
2023/05/17 04:10:40;;;;;;;12.57;5.57;;;;;;;7.25;100.00;100889.00;4977880;28;20255;-77
2023/05/17 04:13:07;;;;;;;7.90;5.03;;;;;;;7.31;100.00;100888.16;4978188;28;20211;-78
2023/05/17 04:15:35;;;;;;;9.13;5.33;;;;;;;7.30;100.00;100887.28;4978562;28;20207;-78
2023/05/17 04:18:01;;;;;;;13.10;5.70;;;;;;;7.37;100.00;100888.16;4978286;28;20277;-78
2023/05/17 04:20:28;;;;;;;6.93;4.50;;;;;;;7.43;100.00;100905.47;4977823;28;20277;-78
2023/05/17 04:22:54;;;;;;;10.20;4.87;;;;;;;7.32;100.00;100908.94;4978136;28;20266;-78
2023/05/17 04:25:22;;;;;;;11.23;4.97;;;;;;;7.40;100.00;100931.47;4978228;28;20733;-78
2023/05/17 04:27:49;;;;;;;12.33;4.60;;;;;;;7.51;100.00;100947.91;4978176;28;20243;-78
2023/05/17 04:30:16;;;;;;;10.53;4.60;;;;;;;7.51;100.00;100974.78;4978242;28;20210;-78
2023/05/17 04:32:44;;;;;;;8.40;4.47;;;;;;;7.59;100.00;100993.00;4977717;28;20211;-79
2023/05/17 04:35:11;;;;;;;12.60;4.43;;;;;;;7.58;100.00;101008.56;4977564;28;20213;-77
2023/05/17 04:37:39;;;;;;;15.30;4.70;;;;;;;7.61;100.00;101014.66;4977934;28;20227;-78
2023/05/17 04:40:07;;;;;;;10.30;4.60;;;;;;;7.53;100.00;101009.41;4978810;28;20236;-79
2023/05/17 04:42:33;;;;;;;8.80;3.93;;;;;;;7.70;100.00;101022.44;4977490;28;20703;-79
2023/05/17 04:45:00;;;;;;;7.97;4.83;;;;;;;7.58;100.00;101034.53;4977667;28;20215;-78
2023/05/17 04:47:26;;;;;;;13.17;4.93;;;;;;;7.63;100.00;101030.22;4976965;28;20325;-78
2023/05/17 04:49:55;;;;;;;12.67;5.13;;;;;;;7.70;100.00;101043.22;4977867;28;20231;-78
2023/05/17 04:52:21;;;;;;;9.40;3.90;;;;;;;7.72;100.00;101064.03;4977763;28;20212;-79
2023/05/17 04:54:47;;;;;;;5.77;3.40;;;;;;;7.86;100.00;101067.53;4977976;28;20629;-78
2023/05/17 04:57:14;;;;;;;12.00;4.33;;;;;;;7.76;100.00;101089.16;4977692;28;20205;-79
2023/05/17 04:59:40;;;;;;;14.27;4.50;;;;;;;7.89;99.17;101105.66;4989196;23;20261;-78
2023/05/17 05:02:07;;;;;;;8.83;3.77;;;;;;;7.92;98.31;101123.84;4978323;28;20286;-78
2023/05/17 05:04:33;;;;;;;8.47;4.33;;;;;;;7.99;98.67;101124.72;4977690;28;20212;-76
2023/05/17 05:07:01;;;;;;;13.10;5.33;;;;;;;7.86;98.59;101136.84;4975821;28;20225;-77
2023/05/17 05:09:27;;;;;;;9.77;5.20;;;;;;;7.93;97.21;101159.41;4977334;28;20241;-78
2023/05/17 05:11:54;;;;;;;10.53;3.40;;;;;;;8.06;95.69;101181.09;4975569;28;20236;-77
2023/05/17 05:14:20;;;;;;;10.97;3.70;;;;;;;7.96;95.07;101211.38;4976737;28;20211;-78
2023/05/17 05:16:47;;;;;;;14.33;3.37;;;;;;;7.96;94.78;101227.84;4977304;28;20211;-78
2023/05/17 05:19:13;;;;;;;9.60;4.67;;;;;;;8.04;94.41;101240.03;4976916;28;20228;-78
2023/05/17 05:21:40;;;;;;;6.60;3.27;;;;;;;8.14;93.91;101247.00;4974660;28;20208;-78
2023/05/17 05:24:08;;;;;;;9.70;4.17;;;;;;;8.15;94.62;101247.00;4974940;28;20211;-78
2023/05/17 05:26:34;;;;;;;12.40;4.70;;;;;;;8.20;93.61;101254.81;4975775;28;20262;-77
2023/05/17 05:29:01;;;;;;;8.60;3.60;;;;;;;8.21;92.79;101268.72;4974714;28;20606;-78
2023/05/17 05:31:27;;;;;;;9.93;3.47;;;;;;;8.16;92.51;101289.47;4974825;28;20211;-78
2023/05/17 05:33:54;;;;;;;9.50;3.90;;;;;;;8.21;92.19;101311.19;4974711;28;20209;-77
2023/05/17 05:36:20;;;;;;;10.43;4.10;;;;;;;8.24;92.66;101321.59;4973687;28;20206;-80
2023/05/17 05:38:48;;;;;;;11.80;3.60;;;;;;;8.27;92.69;101324.22;4973007;28;20281;-77
2023/05/17 05:41:16;;;;;;;6.10;3.10;;;;;;;8.22;92.90;101323.31;4974366;28;20211;-78
2023/05/17 05:43:42;;;;;;;8.77;3.73;;;;;;;8.28;92.07;101330.28;4974258;28;20212;-78
2023/05/17 05:46:09;;;;;;;6.93;3.50;;;;;;;8.33;91.32;101352.00;4974602;28;20209;-77
2023/05/17 05:48:38;;;;;;;8.20;3.70;;;;;;;8.40;90.44;101355.47;4975099;28;20735;-77
2023/05/17 05:51:04;;;;;;;9.80;3.93;;;;;;;8.30;89.44;101391.84;4974179;28;20210;-77
2023/05/17 05:53:31;;;;;;;9.93;2.93;;;;;;;8.33;88.47;101414.44;4975358;28;20215;-78
2023/05/17 05:55:57;;;;;;;7.63;3.63;;;;;;;8.35;87.47;101436.13;4974661;28;20215;-77
2023/05/17 05:58:25;;;;;;;9.17;3.10;;;;;;;8.38;87.80;101456.06;4973772;28;20286;-78
2023/05/17 06:00:51;;;;;;;13.80;2.87;;;;;;;8.40;87.87;101456.94;4974468;28;20211;-77
2023/05/17 06:03:18;;;;;;;8.07;2.87;;;;;;;8.46;85.89;101483.03;4974695;28;20214;-77
2023/05/17 06:05:44;;;;;;;6.97;2.63;;;;;;;8.48;83.41;101529.03;4974695;28;20264;-78
2023/05/17 06:08:11;;;;;;;11.73;3.23;;;;;;;8.42;84.44;101549.78;4973975;28;20713;-78
2023/05/17 06:10:37;;;;;;;5.20;2.20;;;;;;;8.43;83.72;101555.88;4973682;28;20270;-77
2023/05/17 06:13:03;;;;;;;11.00;2.40;;;;;;;8.40;81.49;101606.09;4973498;28;20615;-77
2023/05/17 06:15:32;;;;;;;6.97;2.77;;;;;;;8.52;82.82;101618.38;4973791;28;20206;-78
2023/05/17 06:17:58;;;;;;;11.83;2.87;;;;;;;8.44;81.78;101630.47;4973730;28;20284;-78
2023/05/17 06:20:25;;;;;;;9.80;2.50;;;;;;;8.47;81.94;101646.97;4973588;28;20211;-77
2023/05/17 06:22:51;;;;;;;12.47;3.13;;;;;;;8.54;82.61;101642.69;4973757;28;20255;-78
2023/05/17 06:25:17;;;;;;;7.43;2.63;;;;;;;8.64;82.67;101641.03;4974918;28;20210;-78
2023/05/17 06:27:44;;;;;;;6.83;2.97;;;;;;;8.70;80.29;101659.31;4974354;28;20297;-78
2023/05/17 06:30:11;;;;;;;11.07;2.87;;;;;;;8.63;81.18;101675.75;4974187;28;20211;-78
2023/05/17 06:32:49;;;;;;;4.43;2.20;;;;;;;8.71;80.95;101679.28;4974938;28;20242;-77
2023/05/17 06:35:18;;;;;;;6.53;2.47;;;;;;;8.62;81.31;101677.50;4974198;28;20209;-78
2023/05/17 06:37:45;;;;;;;10.17;2.77;;;;;;;8.66;80.00;101697.47;4974307;28;20226;-78
2023/05/17 06:40:12;;;;;;;6.77;2.27;;;;;;;8.61;81.00;101699.16;4973720;28;20215;-78
2023/05/17 06:42:38;;;;;;;8.40;2.63;;;;;;;8.62;79.07;101723.44;4973250;28;20211;-77
2023/05/17 06:45:06;;;;;;;9.50;2.83;;;;;;;8.68;79.16;101737.41;4973726;28;20243;-77
2023/05/17 06:47:32;;;;;;;6.67;2.83;;;;;;;8.83;80.42;101735.81;4972643;28;20646;-77
2023/05/17 06:50:00;;;;;;;10.20;2.50;;;;;;;8.86;77.59;101761.84;4973293;28;20251;-78
2023/05/17 06:52:26;;;;;;;4.70;2.23;;;;;;;8.91;77.23;101789.69;4974397;28;20214;-78
2023/05/17 06:54:53;;;;;;;7.63;2.67;;;;;;;8.89;75.97;101820.06;4974543;28;20206;-77
2023/05/17 06:57:19;;;;;;;9.40;2.23;;;;;;;8.88;76.70;101835.66;4973455;28;20208;-78
2023/05/17 06:59:46;;;;;;;6.17;2.47;;;;;;;8.94;77.24;101836.59;4973814;28;20215;-78
2023/05/17 07:02:12;;;;;;;11.03;2.50;;;;;;;8.92;75.94;101853.94;4974312;28;20218;-77
2023/05/17 07:04:39;;;;;;;6.70;2.47;;;;;;;8.80;74.38;101879.84;4974300;28;20251;-78
2023/05/17 07:07:06;;;;;;;10.57;2.47;;;;;;;8.85;74.42;101908.53;4973254;28;20684;-77
2023/05/17 07:09:33;;;;;;;7.10;2.77;;;;;;;8.93;75.13;101902.56;4977008;28;20239;-77
2023/05/17 07:11:59;;;;;;;6.43;2.03;;;;;;;9.00;75.03;101911.34;4977441;28;20262;-78
2023/05/17 07:14:26;;;;;;;8.77;2.60;;;;;;;9.03;74.55;101918.28;4977693;28;20705;-78
2023/05/17 07:16:52;;;;;;;8.13;2.43;;;;;;;9.15;74.04;101919.28;4977791;28;20254;-78
2023/05/17 07:19:19;;;;;;;7.57;2.53;;;;;;;9.25;72.82;101933.28;4978100;28;20789;-78
2023/05/17 07:21:45;;;;;;;6.50;2.00;;;;;;;9.20;70.71;101988.84;4977590;28;20215;-77
2023/05/17 07:24:13;;;;;;;4.17;1.83;;;;;;;8.98;67.87;102052.78;4977316;28;20614;-77
2023/05/17 07:26:39;;;;;;;4.90;1.80;;;;;;;9.00;67.88;102095.34;4977672;28;20209;-77
2023/05/17 07:29:06;;;;;;;5.63;2.23;;;;;;;9.08;68.23;102112.88;4977654;28;20231;-78
2023/05/17 07:31:32;;;;;;;4.07;1.70;;;;;;;9.33;67.42;102127.09;4978449;28;20210;-78
2023/05/17 07:33:59;;;;;;;6.40;2.23;;;;;;;9.52;67.04;102137.78;4979567;28;20255;-78
2023/05/17 07:36:26;;;;;;;6.90;2.33;;;;;;;9.57;66.26;102169.97;4978199;28;20208;-78
2023/05/17 07:38:52;;;;;;;6.13;2.50;;;;;;;9.66;65.60;102198.78;4978595;28;20224;-79
2023/05/17 07:41:22;;;;;;;6.37;1.50;;;;;;;9.51;62.84;102277.66;4979564;28;20212;-78
2023/05/17 07:43:48;;;;;;;5.70;1.90;;;;;;;9.37;61.02;102336.50;4982614;28;20583;-77
2023/05/17 07:46:15;;;;;;;5.27;1.50;;;;;;;9.46;61.71;102361.88;4980791;28;20262;-78
2023/05/17 07:48:41;;;;;;;6.40;1.67;;;;;;;9.59;61.80;102374.22;4979894;28;20242;-78
2023/05/17 07:51:08;;;;;;;5.17;1.50;;;;;;;9.64;61.09;102395.19;4977648;28;20748;-78
2023/05/17 07:53:34;;;;;;;5.57;1.50;;;;;;;9.54;60.80;102410.66;4976715;28;20207;-78
2023/05/17 07:56:00;;;;;;;4.27;1.40;;;;;;;9.53;59.85;102432.38;4976600;28;20285;-77
2023/05/17 07:58:28;;;;;;;5.13;1.83;;;;;;;9.44;59.55;102453.06;4976281;28;20223;-78
2023/05/17 08:00:55;;;;;;;6.40;1.67;;;;;;;9.59;59.10;102475.91;4976088;28;20673;-78
2023/05/17 08:03:21;;;;;;;8.37;1.83;;;;;;;9.83;59.98;102485.91;4975921;28;20219;-77
2023/05/17 08:05:47;;;;;;;5.30;2.37;;;;;;;10.02;60.81;102484.47;4976156;28;20215;-78
2023/05/17 08:08:14;;;;;;;4.80;1.40;;;;;;;10.18;60.07;102469.06;4976536;28;20240;-78
2023/05/17 08:10:42;;;;;;;4.80;1.77;;;;;;;10.27;59.42;102477.94;4977104;28;20215;-78
2023/05/17 08:13:08;;;;;;;3.10;1.20;;;;;;;10.09;59.95;102483.75;4976742;28;20221;-78
2023/05/17 08:15:36;;;;;;;3.07;1.63;;;;;;;9.67;58.80;102491.69;4976346;28;20271;-78
2023/05/17 08:18:02;;;;;;;4.33;1.50;;;;;;;9.56;59.01;102488.91;4976403;28;20228;-78
2023/05/17 08:20:29;;;;;;;8.50;1.60;;;;;;;9.76;59.22;102494.47;4974725;28;20355;-77
2023/05/17 08:22:56;;;;;;;5.50;1.60;;;;;;;9.92;58.43;102480.84;4975924;28;20212;-77
2023/05/17 08:25:22;;;;;;;4.63;1.43;;;;;;;10.05;55.08;102505.41;4976417;28;20216;-78
2023/05/17 08:27:48;;;;;;;9.07;2.07;;;;;;;10.38;56.95;102551.19;4975382;28;20289;-77
2023/05/17 08:30:15;;;;;;;3.57;1.33;;;;;;;10.64;57.11;102542.88;4975515;28;20207;-77
2023/05/17 08:32:43;;;;;;;4.83;1.50;;;;;;;10.70;57.38;102549.09;4975299;28;20208;-77
2023/05/17 08:35:11;;;;;;;5.30;1.20;;;;;;;10.58;59.48;102529.75;4975288;28;20360;-78
2023/05/17 08:37:38;;;;;;;4.40;1.60;;;;;;;10.33;57.13;102519.81;4975578;28;20232;-77
2023/05/17 08:40:06;;;;;;;5.43;1.70;;;;;;;10.22;57.57;102523.94;4975461;28;20220;-78
2023/05/17 08:42:34;;;;;;;10.20;1.90;;;;;;;10.11;58.13;102525.53;4974841;28;20246;-77
2023/05/17 08:45:01;;;;;;;5.63;1.57;;;;;;;10.31;57.86;102500.63;4975375;28;20233;-77
2023/05/17 08:47:30;;;;;;;5.20;1.80;;;;;;;10.40;57.71;102506.84;4974767;28;20224;-77
2023/05/17 08:49:59;;;;;;;6.17;1.67;;;;;;;10.36;57.65;102512.88;4966995;28;20263;-77
2023/05/17 08:52:29;;;;;;;5.40;1.70;;;;;;;10.34;58.14;102508.50;4974928;28;20204;-77
2023/05/17 08:54:56;;;;;;;8.40;2.33;;;;;;;10.34;59.98;102489.34;4975624;28;20208;-78
2023/05/17 08:57:26;;;;;;;5.83;1.57;;;;;;;10.22;60.13;102470.88;4975483;28;20254;-78
2023/05/17 08:59:54;;;;;;;4.40;2.10;;;;;;;10.16;59.50;102455.13;4975460;28;20212;-78
2023/05/17 09:02:22;;;;;;;8.40;2.17;;;;;;;10.10;59.51;102448.06;4974890;28;20243;-77
2023/05/17 09:04:54;;;;;;;5.87;2.20;;;;;;;10.10;59.84;102437.63;4975208;28;20216;-77
2023/05/17 09:07:22;;;;;;;4.97;1.60;;;;;;;10.23;59.09;102436.97;4975462;28;20206;-77
2023/05/17 09:09:50;;;;;;;2.70;1.50;;;;;;;10.45;57.13;102452.97;4975132;28;20228;-78
2023/05/17 09:12:17;;;;;;;5.33;2.03;;;;;;;10.69;55.73;102468.09;4975718;28;20204;-78
2023/05/17 09:14:43;;;;;;;5.87;2.53;;;;;;;10.83;55.46;102502.25;4975020;28;20208;-78
2023/05/17 09:17:14;;;;;;;3.60;1.97;;;;;;;10.67;53.97;102543.81;4976203;28;20244;-77
2023/05/17 09:19:44;;;;;;;5.73;2.27;;;;;;;10.69;56.06;102570.84;4975217;28;20219;-78
2023/05/17 09:22:12;;;;;;;8.00;3.20;;;;;;;10.65;56.74;102542.06;4974714;28;20208;-77
2023/05/17 09:24:41;;;;;;;5.80;2.00;;;;;;;10.50;57.96;102524.41;4974747;28;20216;-78
2023/05/17 09:27:08;;;;;;;5.17;2.00;;;;;;;10.41;56.52;102513.84;4974071;28;20204;-77
2023/05/17 09:29:35;;;;;;;7.60;2.10;;;;;;;10.55;57.22;102508.84;4974079;28;20232;-77
2023/05/17 09:32:15;;;;;;;7.03;1.97;;;;;;;10.65;57.28;102487.22;4973251;28;20666;-77
2023/05/17 09:34:42;;;;;;;6.47;2.10;;;;;;;10.75;57.78;102481.25;4971774;28;20684;-78
2023/05/17 09:37:19;;;;;;;5.10;2.07;;;;;;;10.68;56.50;102475.06;4974449;28;20247;-78
2023/05/17 09:39:47;;;;;;;11.43;2.73;;;;;;;10.76;56.33;102495.16;4974573;28;20243;-78
2023/05/17 09:42:15;;;;;;;5.90;2.30;;;;;;;10.66;56.91;102517.66;4974654;28;20670;-78
2023/05/17 09:44:51;;;;;;;7.97;2.27;;;;;;;10.49;58.59;102502.66;4974423;28;20210;-78
2023/05/17 09:47:27;;;;;;;7.17;2.60;;;;;;;10.36;58.92;102486.78;4974005;28;20214;-77
2023/05/17 09:49:55;;;;;;;7.43;1.67;;;;;;;10.45;59.79;102468.66;4973925;28;20227;-77
2023/05/17 09:52:21;;;;;;;8.70;2.83;;;;;;;10.31;58.29;102434.50;4973629;28;20212;-77
2023/05/17 09:54:57;;;;;;;5.23;1.97;;;;;;;10.41;59.38;102425.94;4974147;28;20217;-78
2023/05/17 09:57:25;;;;;;;7.43;2.10;;;;;;;10.59;59.59;102403.56;4973693;28;20269;-78
2023/05/17 09:59:56;;;;;;;5.80;2.30;;;;;;;10.67;58.92;102389.72;4973969;28;20277;-77
2023/05/17 10:02:26;;;;;;;4.50;2.23;;;;;;;10.84;58.42;102383.81;4973660;28;20242;-77
2023/05/17 10:04:56;;;;;;;4.83;2.00;;;;;;;11.06;56.77;102395.38;4973307;28;20262;-77
2023/05/17 10:07:25;;;;;;;6.53;2.00;;;;;;;11.20;57.04;102406.88;4973162;28;20267;-77
2023/05/17 10:09:53;;;;;;;6.97;1.87;;;;;;;10.98;55.43;102437.13;4973283;28;20231;-77
2023/05/17 10:12:23;;;;;;;5.80;2.17;;;;;;;11.01;52.91;102468.50;4973450;28;20615;-77
2023/05/17 10:14:51;;;;;;;5.83;1.70;;;;;;;11.27;53.58;102496.69;4973310;28;20269;-77
2023/05/17 10:17:19;;;;;;;6.20;1.90;;;;;;;11.23;52.72;102540.19;4973494;28;20270;-77
2023/05/17 10:19:46;;;;;;;6.87;2.10;;;;;;;11.17;52.64;102570.63;4974889;28;20236;-78
2023/05/17 10:22:13;;;;;;;4.40;2.27;;;;;;;11.17;53.77;102595.03;4975310;28;20220;-78
2023/05/17 10:27:15;;;;;;;4.40;1.83;;;;;;;11.31;54.81;102587.38;4329957;23;10000684;-82
2023/05/17 10:29:44;;;;;;;5.87;1.87;;;;;;;11.40;52.99;102547.41;4973530;28;20291;-81
2023/05/17 10:32:15;;;;;;;9.00;2.20;;;;;;;11.32;53.21;102571.69;4975274;28;20266;-80
2023/05/17 10:34:43;;;;;;;6.77;2.13;;;;;;;10.98;53.41;102579.94;4974803;28;20674;-78
2023/05/17 10:37:10;;;;;;;6.60;1.80;;;;;;;11.00;53.23;102591.28;4975166;28;20551;-81
2023/05/17 10:39:37;;;;;;;6.53;1.43;;;;;;;11.36;53.18;102575.25;4965486;28;20691;-81
2023/05/17 10:42:07;;;;;;;4.00;1.93;;;;;;;11.50;51.48;102568.44;4975590;28;20208;-82
2023/05/17 10:44:35;;;;;;;3.23;1.63;;;;;;;11.68;51.17;102607.00;4974876;28;20640;-82
2023/05/17 10:47:03;;;;;;;4.17;1.80;;;;;;;11.68;51.15;102638.38;4976080;28;20224;-82
2023/05/17 10:49:33;;;;;;;3.70;1.53;;;;;;;11.65;51.72;102655.78;4975155;28;20227;-81
2023/05/17 10:52:11;;;;;;;7.00;2.53;;;;;;;11.67;52.26;102646.22;4973173;28;20294;-82
2023/05/17 10:54:40;;;;;;;5.23;1.73;;;;;;;11.67;52.06;102636.66;4979095;28;20247;-82
2023/05/17 10:57:08;;;;;;;6.50;2.13;;;;;;;11.69;52.49;102644.50;4977469;28;20693;-81
2023/05/17 10:59:35;;;;;;;5.40;2.13;;;;;;;11.69;53.06;102613.09;4975528;28;20642;-82
2023/05/17 11:02:04;;;;;;;9.30;2.80;;;;;;;11.62;52.78;102612.16;4976583;28;20203;-80
2023/05/17 11:04:36;;;;;;;5.00;1.67;;;;;;;11.77;52.01;102589.63;4974441;28;20208;-80
2023/05/17 11:07:27;;;;;;;7.30;2.33;;;;;;;12.19;53.24;102604.03;4977873;28;20271;-81
2023/05/17 11:09:56;;;;;;;7.20;2.03;;;;;;;12.51;51.30;102581.63;4975682;28;20663;-80
2023/05/17 11:12:32;;;;;;;7.90;1.77;;;;;;;12.37;50.32;102603.31;4976055;28;20208;-79
2023/05/17 11:14:59;;;;;;;5.60;1.90;;;;;;;12.22;50.93;102640.75;4979437;28;20746;-82
2023/05/17 11:17:28;;;;;;;6.40;2.43;;;;;;;12.50;50.86;102639.25;4979984;28;20981;-81
2023/05/17 11:20:08;;;;;;;6.93;2.00;;;;;;;12.46;48.31;102648.81;4980211;28;20215;-82
2023/05/17 11:22:37;;;;;;;5.47;1.93;;;;;;;12.56;48.27;102678.59;4977777;28;20218;-81
2023/05/17 11:25:07;;;;;;;4.80;1.80;;;;;;;12.42;48.16;102701.16;4976342;28;20250;-78
2023/05/17 11:27:37;;;;;;;4.57;1.97;;;;;;;12.56;48.75;102722.25;4978627;28;20307;-81
2023/05/17 11:30:09;;;;;;;4.83;1.90;;;;;;;12.66;48.74;102706.63;4976851;28;20232;-81
2023/05/17 11:32:37;;;;;;;3.73;2.13;;;;;;;12.32;48.39;102723.75;4978561;28;20208;-80